Time;durP1;ratioP1;P1;durP2;ratioP2;P2;SDS_P1;SDS_P2;PMS_P1;PMS_P2;Temp;Humidity;BMP_temperature;BMP_pressure;BME280_temperature;BME280_humidity;BME280_pressure;Samples;Min_cycle;Max_cycle;Signal;HPM_P1;HPM_P2
2022/05/19 00:01:04;;;;;;;14.37;12.97;;;;;;;22.45;58.49;101560.91;5078016;28;20816;-66
2022/05/19 00:03:32;;;;;;;12.73;11.40;;;;;;;22.33;58.30;101566.50;5077944;28;20173;-66
2022/05/19 00:06:00;;;;;;;13.87;12.60;;;;;;;22.25;59.47;101560.53;5078466;28;20422;-68
2022/05/19 00:08:27;;;;;;;12.80;11.37;;;;;;;22.37;58.78;101554.91;5078143;28;20415;-67
2022/05/19 00:10:55;;;;;;;11.93;10.90;;;;;;;22.17;58.75;101561.56;5078204;28;20507;-66
2022/05/19 00:13:21;;;;;;;11.67;10.70;;;;;;;22.25;59.30;101557.88;5077825;28;20403;-66
2022/05/19 00:15:46;;;;;;;16.13;11.67;;;;;;;22.40;58.54;101559.28;5077998;28;20430;-66
2022/05/19 00:18:11;;;;;;;11.80;10.70;;;;;;;22.24;58.98;101558.78;5078016;28;20226;-65
2022/05/19 00:20:36;;;;;;;11.00;10.17;;;;;;;22.33;58.72;101553.22;5078932;28;20345;-66
2022/05/19 00:23:02;;;;;;;10.83;9.83;;;;;;;22.29;59.14;101548.91;5081841;28;20177;-66
2022/05/19 00:25:27;;;;;;;11.20;10.30;;;;;;;21.96;59.74;101552.38;5081994;28;20195;-66
2022/05/19 00:27:53;;;;;;;10.60;9.70;;;;;;;21.90;59.73;101546.34;5082232;28;20180;-66
2022/05/19 00:30:18;;;;;;;10.53;9.70;;;;;;;21.65;60.55;101545.16;5081994;28;20173;-67
2022/05/19 00:32:43;;;;;;;11.23;10.23;;;;;;;22.08;59.93;101543.22;5081750;28;20232;-67
2022/05/19 00:35:09;;;;;;;11.27;10.27;;;;;;;21.97;59.74;101553.25;5082400;28;20230;-66
2022/05/19 00:37:34;;;;;;;11.13;10.13;;;;;;;21.76;60.82;101544.03;5081556;28;20173;-66
2022/05/19 00:39:59;;;;;;;10.50;9.67;;;;;;;21.57;61.02;101541.84;5081847;28;20527;-66
2022/05/19 00:45:13;;;;;;;11.13;10.23;;;;;;;22.05;59.74;101540.66;5081474;28;20235;-66
2022/05/19 00:47:43;;;;;;;10.53;9.70;;;;;;;21.54;61.09;101544.53;5081483;28;20477;-65
2022/05/19 00:50:26;;;;;;;10.97;10.00;;;;;;;21.53;61.41;101541.03;5081485;28;20415;-66
2022/05/19 00:52:55;;;;;;;10.40;9.30;;;;;;;21.45;61.21;101542.94;5081556;28;20425;-66
2022/05/19 00:55:25;;;;;;;10.43;9.47;;;;;;;21.66;61.31;101538.06;5081393;28;20437;-65
2022/05/19 00:57:57;;;;;;;10.87;9.80;;;;;;;21.81;60.44;101539.47;5081262;28;20408;-67
2022/05/19 01:00:23;;;;;;;10.37;9.57;;;;;;;21.74;60.34;101544.06;5080451;28;20454;-68
2022/05/19 01:02:57;;;;;;;10.70;9.73;;;;;;;21.66;61.14;101543.38;5081202;28;20422;-66
2022/05/19 01:05:36;;;;;;;10.30;9.60;;;;;;;21.46;61.31;101543.81;5080645;28;20174;-65
2022/05/19 01:08:26;;;;;;;11.17;10.07;;;;;;;21.50;60.99;101541.06;5080685;28;20828;-67
2022/05/19 01:10:52;;;;;;;10.57;9.67;;;;;;;21.71;60.82;101546.81;5081003;28;20556;-66
2022/05/19 01:13:18;;;;;;;10.80;9.83;;;;;;;21.83;60.41;101546.50;5075225;28;20424;-67
2022/05/19 01:15:46;;;;;;;10.43;9.53;;;;;;;21.58;61.28;101546.22;5060987;28;20832;-66
2022/05/19 01:18:13;;;;;;;11.20;10.23;;;;;;;21.39;61.65;101545.72;5061281;28;20226;-66
2022/05/19 01:20:38;;;;;;;11.00;10.10;;;;;;;21.32;61.96;101538.81;5061156;28;20491;-66
2022/05/19 01:23:24;;;;;;;10.93;9.90;;;;;;;21.57;60.73;101532.97;5059887;28;20458;-67
2022/05/19 01:26:11;;;;;;;11.27;10.00;;;;;;;21.16;61.87;101539.19;5060183;28;20217;-68
2022/05/19 01:28:37;;;;;;;11.07;9.87;;;;;;;21.64;60.69;101534.59;5060740;28;20550;-67
2022/05/19 01:31:02;;;;;;;10.93;9.77;;;;;;;21.51;60.50;101532.22;5060677;28;20444;-67
2022/05/19 01:33:27;;;;;;;11.70;9.07;;;;;;;21.47;61.37;101538.50;5060263;28;20181;-66
2022/05/19 01:35:53;;;;;;;10.77;9.67;;;;;;;21.20;61.55;101535.56;5060845;28;20189;-67
2022/05/19 01:38:24;;;;;;;10.33;9.23;;;;;;;21.27;61.37;101535.41;5061033;28;20181;-67
2022/05/19 01:41:14;;;;;;;11.13;10.13;;;;;;;21.30;61.41;101533.56;5060381;28;20335;-66
2022/05/19 01:43:59;;;;;;;11.77;10.77;;;;;;;21.25;61.78;101531.94;5059687;28;20420;-66
2022/05/19 01:46:30;;;;;;;11.60;10.20;;;;;;;21.42;61.41;101531.53;5059769;28;20775;-65
2022/05/19 01:49:05;;;;;;;10.57;9.57;;;;;;;21.45;61.39;101531.47;5059786;28;20821;-66
2022/05/19 01:51:50;;;;;;;10.13;9.30;;;;;;;21.64;60.52;101535.47;5078493;28;20426;-67
2022/05/19 01:54:29;;;;;;;10.13;9.33;;;;;;;21.27;61.49;101536.28;5080399;28;20415;-66
2022/05/19 01:57:14;;;;;;;10.23;9.43;;;;;;;21.37;60.71;101539.59;5079676;28;20443;-66
2022/05/19 01:59:55;;;;;;;12.37;10.13;;;;;;;21.78;59.96;101535.13;5079767;28;20472;-66
2022/05/19 02:02:42;;;;;;;9.77;8.80;;;;;;;21.77;59.90;101537.81;5080537;28;20459;-67
2022/05/19 02:05:34;;;;;;;9.93;9.03;;;;;;;21.69;59.83;101536.22;5080794;28;20693;-67
2022/05/19 02:08:02;;;;;;;9.60;8.80;;;;;;;21.95;59.31;101528.53;5080318;28;20418;-66
2022/05/19 02:10:31;;;;;;;11.50;9.90;;;;;;;21.84;59.12;101531.47;5080152;28;20426;-66
2022/05/19 02:12:59;;;;;;;9.73;8.93;;;;;;;21.81;59.42;101532.41;5078878;28;20434;-66
2022/05/19 02:15:26;;;;;;;9.40;8.60;;;;;;;21.97;58.59;101532.00;5079201;28;20484;-66
2022/05/19 02:17:52;;;;;;;9.97;9.17;;;;;;;21.65;59.48;101531.91;5080130;28;20498;-66
2022/05/19 02:20:20;;;;;;;10.60;9.70;;;;;;;21.63;59.88;101528.41;5079801;28;20439;-65
2022/05/19 02:22:46;;;;;;;9.93;9.13;;;;;;;21.79;59.41;101523.59;5079145;28;20415;-67
2022/05/19 02:25:19;;;;;;;9.20;8.50;;;;;;;22.54;57.66;101518.13;5080107;28;20624;-67
2022/05/19 02:27:53;;;;;;;8.90;8.20;;;;;;;22.46;57.10;101517.47;5078947;28;20450;-67
2022/05/19 02:30:23;;;;;;;9.37;8.43;;;;;;;22.56;57.01;101522.53;5079508;28;20410;-65
2022/05/19 02:32:48;;;;;;;10.30;9.10;;;;;;;22.63;56.49;101516.97;5078665;28;20415;-69
2022/05/19 02:35:14;;;;;;;9.87;8.93;;;;;;;22.87;56.26;101509.22;5078965;28;20523;-67
2022/05/19 02:37:39;;;;;;;8.87;8.17;;;;;;;22.88;55.99;101503.84;5079879;28;20256;-66
2022/05/19 02:40:06;;;;;;;9.83;9.00;;;;;;;23.12;55.22;101514.66;5079207;28;20180;-67
2022/05/19 02:42:31;;;;;;;8.90;8.20;;;;;;;23.35;54.61;101511.34;5079310;28;20522;-69
2022/05/19 02:44:56;;;;;;;9.70;8.80;;;;;;;23.29;54.58;101515.97;5079177;28;20458;-66
2022/05/19 02:47:22;;;;;;;10.30;8.87;;;;;;;22.73;56.00;101514.91;5079087;28;20251;-67
2022/05/19 02:49:47;;;;;;;10.43;9.10;;;;;;;22.93;55.42;101509.03;5079411;28;20177;-67
2022/05/19 02:52:12;;;;;;;9.47;8.67;;;;;;;23.07;55.19;101505.97;5079520;28;20226;-67
2022/05/19 02:54:38;;;;;;;10.20;9.20;;;;;;;22.60;55.83;101500.28;5079131;28;20558;-67
2022/05/19 02:57:03;;;;;;;9.27;8.37;;;;;;;22.70;55.90;101502.63;5078960;28;20181;-65
2022/05/19 02:59:30;;;;;;;10.47;9.30;;;;;;;22.87;55.70;101502.09;5077501;28;20191;-65
2022/05/19 03:01:55;;;;;;;9.73;8.93;;;;;;;21.93;58.05;101503.81;5058946;28;20255;-68
2022/05/19 03:04:21;;;;;;;9.70;8.90;;;;;;;21.29;60.19;101507.06;5059392;28;20420;-66
2022/05/19 03:06:46;;;;;;;10.47;9.47;;;;;;;21.08;61.29;101514.63;5062528;28;20170;-67
2022/05/19 03:09:11;;;;;;;10.27;9.27;;;;;;;21.17;61.18;101503.78;5065340;28;20178;-68
2022/05/19 03:11:37;;;;;;;10.67;9.67;;;;;;;21.18;61.15;101499.38;5060133;28;20423;-67
2022/05/19 03:14:03;;;;;;;10.77;9.77;;;;;;;21.09;60.86;101504.88;5059375;28;20173;-66
2022/05/19 03:16:28;;;;;;;10.17;9.37;;;;;;;20.73;61.73;101502.97;5058826;28;20222;-67
2022/05/19 03:18:53;;;;;;;9.90;9.10;;;;;;;21.17;60.71;101505.56;5058651;28;20204;-66
2022/05/19 03:21:19;;;;;;;9.97;9.10;;;;;;;20.67;62.36;101511.00;5059193;28;20259;-67
2022/05/19 03:23:44;;;;;;;11.60;9.87;;;;;;;20.83;62.82;101509.81;5058507;28;20184;-66
2022/05/19 03:26:10;;;;;;;10.90;9.90;;;;;;;20.70;63.15;101503.03;5059045;28;20449;-66
2022/05/19 03:28:36;;;;;;;11.17;10.10;;;;;;;20.81;62.64;101509.00;5058753;28;20177;-66
2022/05/19 03:31:01;;;;;;;11.40;10.20;;;;;;;20.86;62.60;101512.44;5058597;28;20457;-67
2022/05/19 03:33:26;;;;;;;10.60;9.60;;;;;;;20.74;62.18;101498.53;5058317;28;20197;-66
2022/05/19 03:35:56;;;;;;;12.87;10.00;;;;;;;20.90;62.66;101505.25;5059278;28;20180;-66
2022/05/19 03:38:21;;;;;;;10.67;9.67;;;;;;;20.55;63.16;101511.25;5058481;28;20188;-65
2022/05/19 03:40:47;;;;;;;11.30;10.30;;;;;;;20.59;63.44;101502.34;5058761;28;20467;-66
2022/05/19 03:43:12;;;;;;;11.67;10.40;;;;;;;20.60;63.69;101512.03;5059026;28;20189;-66
2022/05/19 03:45:38;;;;;;;11.60;10.50;;;;;;;20.83;63.12;101499.22;5058691;28;20535;-68
2022/05/19 03:48:03;;;;;;;12.17;9.97;;;;;;;20.72;63.69;101501.22;5063178;28;20225;-65
2022/05/19 03:50:28;;;;;;;10.97;10.10;;;;;;;20.77;63.32;101498.47;5071141;28;20176;-66
2022/05/19 03:52:54;;;;;;;12.63;11.43;;;;;;;20.56;63.77;101500.63;5078146;28;20438;-67
2022/05/19 03:55:19;;;;;;;11.00;10.00;;;;;;;20.79;62.67;101502.84;5078412;28;20257;-67
2022/05/19 03:57:46;;;;;;;10.90;10.00;;;;;;;20.78;63.11;101495.81;5079099;28;20185;-67
2022/05/19 04:00:12;;;;;;;11.23;10.33;;;;;;;20.60;63.74;101498.81;5078123;28;20444;-66
2022/05/19 04:02:37;;;;;;;11.77;10.77;;;;;;;20.50;63.55;101496.31;5078306;28;20407;-65
2022/05/19 04:05:04;;;;;;;11.23;10.03;;;;;;;20.63;63.63;101496.94;5079013;28;20412;-67
2022/05/19 04:07:29;;;;;;;11.90;10.73;;;;;;;20.60;63.64;101494.38;5076349;28;20177;-68
2022/05/19 04:09:55;;;;;;;11.80;10.77;;;;;;;20.64;63.36;101495.19;5066602;28;20431;-65
2022/05/19 04:12:20;;;;;;;11.77;10.40;;;;;;;20.48;63.89;101502.56;5057823;28;20212;-66
2022/05/19 04:14:46;;;;;;;11.07;10.20;;;;;;;20.60;63.76;101502.31;5058215;28;20176;-67
2022/05/19 04:17:11;;;;;;;13.17;9.90;;;;;;;20.48;63.54;101497.25;5068752;28;20202;-67
2022/05/19 04:19:37;;;;;;;12.43;11.20;;;;;;;20.74;62.98;101495.91;5063037;28;20169;-66
2022/05/19 04:22:02;;;;;;;10.90;9.97;;;;;;;20.57;63.11;101494.44;5059638;28;20197;-66
2022/05/19 04:24:27;;;;;;;10.50;9.57;;;;;;;20.62;63.31;101495.22;5072514;28;20222;-66
2022/05/19 04:26:53;;;;;;;14.03;9.87;;;;;;;21.01;61.88;101497.97;5075491;28;20208;-67
2022/05/19 04:29:18;;;;;;;10.50;9.60;;;;;;;20.91;61.80;101498.19;5067864;28;20534;-65
2022/05/19 04:31:44;;;;;;;12.40;10.70;;;;;;;21.32;60.75;101504.34;5076112;28;20188;-66
2022/05/19 04:34:09;;;;;;;10.70;9.80;;;;;;;21.38;60.91;101501.56;5070356;28;20201;-67
2022/05/19 04:36:34;;;;;;;10.83;9.83;;;;;;;21.56;60.19;101494.97;5073939;28;20185;-66
2022/05/19 04:38:59;;;;;;;12.30;9.30;;;;;;;22.15;58.38;101499.69;5075382;28;20535;-66
2022/05/19 04:41:25;;;;;;;9.93;9.17;;;;;;;22.33;57.55;101497.44;5057987;28;20588;-66
2022/05/19 04:43:51;;;;;;;12.00;10.00;;;;;;;22.35;57.68;101507.16;5057656;28;20169;-67
2022/05/19 04:46:16;;;;;;;10.10;9.07;;;;;;;22.68;56.28;101499.13;5057730;28;20161;-66
2022/05/19 04:48:42;;;;;;;10.60;9.60;;;;;;;22.54;57.02;101507.50;5058289;28;20817;-68
2022/05/19 04:51:07;;;;;;;11.77;9.47;;;;;;;23.09;55.46;101500.59;5059861;28;20174;-66
2022/05/19 04:53:33;;;;;;;10.47;9.40;;;;;;;23.40;54.24;101497.88;5077614;28;20461;-66
2022/05/19 04:55:58;;;;;;;10.17;9.10;;;;;;;23.98;52.50;101494.25;5078159;28;20197;-67
2022/05/19 04:58:23;;;;;;;10.37;9.40;;;;;;;23.59;53.66;101505.28;5077607;28;20181;-68
2022/05/19 05:00:50;;;;;;;10.53;9.63;;;;;;;23.17;55.05;101507.44;5069222;28;20209;-66
2022/05/19 05:03:15;;;;;;;10.00;9.00;;;;;;;23.68;52.98;101510.31;5062473;28;20598;-66
2022/05/19 05:05:41;;;;;;;10.30;9.30;;;;;;;23.33;53.19;101506.97;5072028;28;20506;-67
2022/05/19 05:08:06;;;;;;;11.13;8.83;;;;;;;24.04;52.14;101499.34;5080396;28;20238;-67
2022/05/19 05:10:31;;;;;;;10.37;8.50;;;;;;;25.16;49.54;101496.16;5080061;28;20757;-66
2022/05/19 05:12:57;;;;;;;9.67;8.50;;;;;;;25.38;48.45;101501.50;5079903;28;20574;-67
2022/05/19 05:15:22;;;;;;;12.33;8.70;;;;;;;25.39;48.24;101506.78;5079511;28;20541;-67
2022/05/19 05:17:48;;;;;;;9.43;8.53;;;;;;;25.27;49.15;101514.41;5081864;28;20169;-66
2022/05/19 05:20:14;;;;;;;9.73;8.63;;;;;;;24.70;49.79;101506.78;5080365;28;20538;-67
2022/05/19 05:22:39;;;;;;;8.67;8.00;;;;;;;24.48;50.46;101504.03;5080925;28;20293;-67
2022/05/19 05:25:12;;;;;;;11.50;8.77;;;;;;;24.75;49.90;101506.59;5079757;28;20443;-67
2022/05/19 05:27:37;;;;;;;11.83;8.77;;;;;;;24.19;50.77;101504.16;5079385;28;20275;-66
2022/05/19 05:30:04;;;;;;;9.57;8.70;;;;;;;24.78;49.92;101503.84;5079081;28;20474;-66
2022/05/19 05:32:29;;;;;;;9.77;8.90;;;;;;;24.25;51.42;101511.03;5067817;28;20165;-66
2022/05/19 05:34:55;;;;;;;9.77;8.90;;;;;;;23.70;52.63;101514.63;5077310;28;20427;-68
2022/05/19 05:37:20;;;;;;;12.33;9.60;;;;;;;24.16;51.53;101512.22;5070251;28;20189;-68
2022/05/19 05:39:45;;;;;;;9.37;8.50;;;;;;;24.99;49.40;101510.13;5072067;28;20227;-67
2022/05/19 05:42:10;;;;;;;14.60;9.27;;;;;;;24.57;49.92;101509.00;5080238;28;20200;-67
2022/05/19 05:44:36;;;;;;;10.47;9.10;;;;;;;24.71;50.12;101511.19;5080044;28;20499;-67
2022/05/19 05:47:01;;;;;;;10.03;9.03;;;;;;;25.33;48.19;101503.47;5079921;28;20220;-67
2022/05/19 05:49:26;;;;;;;11.33;9.17;;;;;;;24.63;49.84;101502.63;5065906;28;20338;-69
2022/05/19 05:51:52;;;;;;;10.83;8.90;;;;;;;25.34;48.39;101499.91;5077346;28;20458;-68
2022/05/19 05:54:17;;;;;;;9.33;8.40;;;;;;;25.89;46.82;101508.28;5080178;28;20541;-68
2022/05/19 05:56:43;;;;;;;9.70;8.30;;;;;;;25.46;47.22;101515.41;5079663;28;20211;-68
2022/05/19 05:59:08;;;;;;;9.70;7.97;;;;;;;25.62;47.18;101510.31;5060429;28;20174;-67
2022/05/19 06:01:33;;;;;;;10.50;7.80;;;;;;;25.87;46.43;101514.63;5070911;28;20215;-67
2022/05/19 06:03:58;;;;;;;11.10;8.30;;;;;;;27.25;44.06;101490.63;5076362;28;20189;-66
2022/05/19 06:06:25;;;;;;;9.97;7.93;;;;;;;27.58;43.29;101497.09;5073845;28;20209;-67
2022/05/19 06:08:50;;;;;;;9.53;7.63;;;;;;;28.23;41.51;101495.53;5079235;28;20233;-68
2022/05/19 06:11:16;;;;;;;10.23;7.50;;;;;;;29.05;39.85;101498.31;5076473;28;20419;-69
2022/05/19 06:13:42;;;;;;;8.27;7.37;;;;;;;28.72;39.91;101497.41;5075656;28;20626;-68
2022/05/19 06:16:07;;;;;;;8.27;7.47;;;;;;;28.90;39.92;101502.72;5075987;28;20570;-68
2022/05/19 06:18:32;;;;;;;10.57;7.50;;;;;;;28.94;39.29;101501.59;5076221;28;20181;-67
2022/05/19 06:20:58;;;;;;;8.07;7.27;;;;;;;28.68;40.24;101492.31;5060426;28;20178;-69
2022/05/19 06:23:23;;;;;;;8.67;7.77;;;;;;;29.04;39.64;101493.91;5075381;28;20234;-68
2022/05/19 06:25:48;;;;;;;8.43;7.30;;;;;;;29.01;39.38;101497.63;5078347;28;20199;-67
2022/05/19 06:28:14;;;;;;;8.17;7.37;;;;;;;29.16;39.05;101493.22;5082191;28;20557;-69
2022/05/19 06:30:40;;;;;;;11.47;7.90;;;;;;;29.52;38.00;101494.75;5081235;28;20188;-67
2022/05/19 06:33:05;;;;;;;8.30;7.50;;;;;;;28.57;40.28;101496.41;5077699;28;20181;-67
2022/05/19 06:35:32;;;;;;;8.50;7.37;;;;;;;29.09;39.42;101477.53;5077423;28;20215;-68
2022/05/19 06:37:58;;;;;;;7.90;7.10;;;;;;;29.02;39.03;101485.06;5078386;28;20205;-69
2022/05/19 06:40:24;;;;;;;10.33;7.47;;;;;;;30.37;36.56;101478.91;5077932;28;20430;-69
2022/05/19 06:42:50;;;;;;;10.37;7.40;;;;;;;31.31;35.36;101474.78;5078025;28;20164;-69
2022/05/19 06:45:18;;;;;;;10.40;7.07;;;;;;;29.30;38.33;101479.03;5079115;28;20427;-68
2022/05/19 06:47:44;;;;;;;8.20;7.40;;;;;;;32.06;34.03;101467.94;5074930;28;20544;-68
2022/05/19 06:50:11;;;;;;;10.63;6.93;;;;;;;31.05;35.78;101466.59;5063662;28;20481;-68
2022/05/19 06:52:46;;;;;;;7.73;7.07;;;;;;;31.57;35.09;101469.47;5071155;28;20184;-67
2022/05/19 06:55:13;;;;;;;8.20;7.10;;;;;;;31.05;35.89;101473.81;5058970;28;20469;-66
2022/05/19 06:57:39;;;;;;;8.23;6.80;;;;;;;31.84;34.51;101465.88;5061554;28;20436;-67
2022/05/19 07:00:07;;;;;;;13.90;7.30;;;;;;;30.95;35.38;101462.75;5077347;28;20499;-67
2022/05/19 07:02:33;;;;;;;7.57;6.37;;;;;;;32.04;34.12;101464.47;5070824;28;20219;-67
2022/05/19 07:04:58;;;;;;;9.20;6.47;;;;;;;32.60;32.93;101464.16;5077326;28;20840;-67
2022/05/19 07:07:24;;;;;;;7.60;5.77;;;;;;;32.83;31.45;101462.50;5078693;28;20183;-69
2022/05/19 07:09:49;;;;;;;8.63;6.73;;;;;;;32.62;32.48;101461.34;5077234;28;20226;-68
2022/05/19 07:12:23;;;;;;;10.33;5.80;;;;;;;32.66;31.85;101457.44;5076025;28;20207;-69
2022/05/19 07:14:50;;;;;;;15.00;5.57;;;;;;;33.43;30.78;101459.88;5047655;28;20183;-67
2022/05/19 07:17:17;;;;;;;7.23;5.73;;;;;;;34.19;28.92;101454.06;5076701;28;20837;-68
2022/05/19 07:22:27;;;;;;;5.83;5.20;;;;;;;33.66;29.78;101466.22;5076198;28;20446;-69
2022/05/19 07:24:52;;;;;;;9.80;5.30;;;;;;;34.65;28.08;101455.78;5064637;28;20432;-69
2022/05/19 07:27:19;;;;;;;8.03;4.90;;;;;;;35.86;26.64;101452.06;5075689;28;20181;-67
2022/05/19 07:29:45;;;;;;;5.40;4.90;;;;;;;36.56;25.67;101457.72;5076593;28;20218;-67
2022/05/19 07:32:10;;;;;;;5.77;5.20;;;;;;;33.54;29.14;101456.34;5061783;28;20804;-67
2022/05/19 07:34:38;;;;;;;5.17;4.77;;;;;;;34.98;27.98;101454.03;5065166;28;20246;-67
2022/05/19 07:37:04;;;;;;;9.40;5.00;;;;;;;34.54;28.33;101447.69;5059187;28;20169;-67
2022/05/19 07:39:30;;;;;;;6.00;5.40;;;;;;;35.64;27.16;101441.31;5076666;28;20438;-66
2022/05/19 07:41:56;;;;;;;5.87;5.33;;;;;;;36.19;26.51;101441.94;5068240;28;20173;-66
2022/05/19 07:44:23;;;;;;;5.90;5.30;;;;;;;35.35;27.85;101444.69;5076259;28;20820;-66
2022/05/19 07:46:48;;;;;;;5.53;5.00;;;;;;;33.63;29.25;101452.94;5063975;28;20899;-67
2022/05/19 07:49:14;;;;;;;5.50;4.53;;;;;;;36.59;25.35;101434.84;5078104;28;20563;-67
2022/05/19 07:51:41;;;;;;;4.70;4.40;;;;;;;36.07;25.06;101432.19;5065525;28;20204;-67
2022/05/19 07:54:12;;;;;;;4.77;4.37;;;;;;;32.81;29.41;101445.53;5074486;28;20174;-68
2022/05/19 07:56:39;;;;;;;4.80;4.40;;;;;;;32.14;29.98;101449.38;5071862;28;20424;-68
2022/05/19 07:59:04;;;;;;;5.50;5.00;;;;;;;33.05;28.60;101444.69;5067325;28;20423;-68
2022/05/19 08:01:31;;;;;;;5.30;4.80;;;;;;;32.64;29.76;101444.06;5066177;28;20904;-68
2022/05/19 08:03:57;;;;;;;5.50;4.73;;;;;;;33.55;28.17;101437.31;5075168;28;20458;-70
2022/05/19 08:06:22;;;;;;;5.23;4.83;;;;;;;33.67;28.36;101443.63;5076707;28;20434;-70
2022/05/19 08:08:48;;;;;;;5.40;4.90;;;;;;;33.18;28.78;101448.22;5072262;28;20423;-70
2022/05/19 08:11:13;;;;;;;11.20;5.60;;;;;;;33.82;28.24;101435.34;5070300;28;20196;-69
2022/05/19 08:16:23;;;;;;;6.20;4.70;;;;;;;36.34;24.58;101422.59;5076399;28;20218;-70
2022/05/19 08:18:49;;;;;;;5.03;4.63;;;;;;;35.78;26.58;101430.16;5076555;28;20415;-71
2022/05/19 08:21:15;;;;;;;6.73;4.60;;;;;;;36.19;24.58;101439.22;5065359;28;20617;-70
2022/05/19 08:23:45;;;;;;;5.77;4.50;;;;;;;36.63;24.19;101424.53;5073721;28;20495;-70
2022/05/19 08:26:10;;;;;;;6.30;4.30;;;;;;;35.79;25.01;101421.03;5076045;28;20493;-70
2022/05/19 08:28:38;;;;;;;5.10;4.23;;;;;;;36.17;24.33;101421.34;5071702;28;20525;-70
2022/05/19 08:31:09;;;;;;;5.00;4.50;;;;;;;36.21;23.49;101429.09;5075044;28;20286;-70
2022/05/19 08:33:35;;;;;;;5.97;4.40;;;;;;;36.48;23.86;101422.22;5069383;28;20485;-69
2022/05/19 08:36:02;;;;;;;5.43;4.60;;;;;;;35.58;24.91;101427.28;5076842;28;20767;-70
2022/05/19 08:38:27;;;;;;;4.87;4.37;;;;;;;37.71;22.44;101422.72;5074102;28;20435;-70
2022/05/19 08:40:56;;;;;;;5.37;4.40;;;;;;;36.88;23.76;101425.91;5066553;28;20428;-69
2022/05/19 08:43:25;;;;;;;6.00;5.07;;;;;;;36.31;23.82;101425.56;5080434;28;20205;-70
2022/05/19 08:45:53;;;;;;;4.77;4.20;;;;;;;36.60;24.22;101431.09;5081071;28;20422;-70
2022/05/19 08:48:25;;;;;;;4.80;4.40;;;;;;;36.70;23.42;101431.16;5081360;28;20451;-69
2022/05/19 08:51:00;;;;;;;9.80;4.33;;;;;;;36.01;24.42;101424.59;5080641;28;20715;-70
2022/05/19 08:53:33;;;;;;;5.20;4.50;;;;;;;35.02;25.38;101427.53;5081332;28;20823;-69
2022/05/19 08:56:26;;;;;;;8.03;4.47;;;;;;;34.79;25.78;101424.00;5081383;28;20651;-68
2022/05/19 08:59:02;;;;;;;5.43;4.93;;;;;;;35.98;24.16;101431.16;5063397;28;20415;-65
2022/05/19 09:01:40;;;;;;;6.47;4.83;;;;;;;34.64;26.34;101431.53;5081264;28;20399;-66
2022/05/19 09:04:18;;;;;;;5.53;4.60;;;;;;;35.23;25.22;101411.31;5080698;28;20415;-66
2022/05/19 09:07:56;;;;;;;5.17;4.63;;;;;;;35.97;24.30;101415.00;5080808;28;20415;-66
2022/05/19 09:10:03;;;;;;;5.37;4.27;;;;;;;36.10;24.30;101409.34;5073483;28;20455;-66
2022/05/19 09:12:30;;;;;;;8.40;6.03;;;;;;;36.06;24.40;101401.47;5060916;28;20509;-67
2022/05/19 09:14:55;;;;;;;5.00;4.60;;;;;;;37.18;22.81;101392.28;5064278;28;20700;-70
2022/05/19 09:17:25;;;;;;;7.50;4.53;;;;;;;35.96;23.74;101397.00;5079805;28;20452;-69
2022/05/19 09:19:57;;;;;;;5.53;4.17;;;;;;;35.35;25.44;101385.91;5079427;28;20179;-70
2022/05/19 09:22:26;;;;;;;5.67;4.40;;;;;;;35.38;24.68;101382.91;5077187;28;20439;-70
2022/05/19 09:24:52;;;;;;;5.43;4.90;;;;;;;34.85;25.94;101383.75;5079744;28;20434;-70
2022/05/19 09:27:19;;;;;;;6.50;4.60;;;;;;;35.48;24.38;101383.00;5078466;28;20872;-69
2022/05/19 09:29:49;;;;;;;6.83;4.37;;;;;;;35.74;23.86;101378.00;5078806;28;20438;-69
2022/05/19 09:32:37;;;;;;;5.83;4.57;;;;;;;36.28;24.27;101385.09;5076517;28;20458;-69
2022/05/19 09:35:07;;;;;;;5.00;4.60;;;;;;;35.62;23.70;101380.94;5078382;28;20481;-69
2022/05/19 09:37:44;;;;;;;5.40;4.23;;;;;;;35.28;25.10;101392.81;5072267;28;20463;-70
2022/05/19 09:40:10;;;;;;;4.77;4.37;;;;;;;35.32;25.30;101382.56;5079570;28;20423;-70
2022/05/19 09:42:51;;;;;;;4.50;4.10;;;;;;;35.68;24.44;101383.09;5076289;28;20441;-69
2022/05/19 09:45:19;;;;;;;4.60;4.20;;;;;;;34.74;25.84;101387.31;5065718;28;20166;-68
2022/05/19 09:47:49;;;;;;;5.40;4.73;;;;;;;34.47;24.81;101397.75;5079732;28;20807;-70
2022/05/19 09:50:23;;;;;;;4.40;4.10;;;;;;;36.53;22.06;101387.34;5079381;28;20427;-68
2022/05/19 09:52:48;;;;;;;5.00;4.50;;;;;;;34.85;24.75;101385.59;5074667;28;20708;-70
2022/05/19 09:55:16;;;;;;;5.90;4.70;;;;;;;34.95;25.41;101381.13;5060053;28;20486;-69
2022/05/19 09:57:51;;;;;;;6.30;4.70;;;;;;;35.44;24.07;101386.97;5061533;28;20181;-69
2022/05/19 10:00:34;;;;;;;4.93;4.63;;;;;;;35.33;24.00;101382.47;5077622;28;20422;-68
2022/05/19 10:03:02;;;;;;;4.50;4.20;;;;;;;36.11;23.03;101379.34;5060180;28;20411;-68
2022/05/19 10:05:31;;;;;;;5.03;4.47;;;;;;;35.72;23.83;101381.84;5077143;28;20448;-69
2022/05/19 10:08:04;;;;;;;8.10;4.63;;;;;;;34.60;25.23;101386.75;5069373;28;20519;-70
2022/05/19 10:10:32;;;;;;;4.90;4.50;;;;;;;34.00;26.60;101382.47;5077080;28;20437;-69
2022/05/19 10:13:02;;;;;;;5.23;4.80;;;;;;;34.15;26.47;101376.81;5078237;28;20419;-68
2022/05/19 10:15:39;;;;;;;5.83;4.67;;;;;;;33.80;26.52;101377.78;5077947;28;20447;-68
2022/05/19 10:18:28;;;;;;;5.30;4.80;;;;;;;33.39;27.15;101374.59;5078048;28;20419;-69
2022/05/19 10:21:16;;;;;;;5.47;4.90;;;;;;;33.21;27.91;101383.13;5069814;28;20471;-69
2022/05/19 10:24:06;;;;;;;4.90;4.50;;;;;;;32.90;27.89;101373.78;5067841;28;20428;-66
2022/05/19 10:33:11;;;;;;;5.53;5.03;;;;;;;32.22;29.76;101365.25;5067437;28;20435;-66
2022/05/19 10:35:37;;;;;;;5.33;4.93;;;;;;;31.59;30.54;101359.72;5070718;28;20442;-67
2022/05/19 10:38:10;;;;;;;7.17;5.00;;;;;;;31.21;30.82;101364.06;5078169;28;20488;-67
2022/05/19 10:40:59;;;;;;;5.47;5.07;;;;;;;31.38;30.52;101360.25;5077197;28;20189;-69
2022/05/19 10:43:47;;;;;;;5.07;4.67;;;;;;;31.52;30.56;101355.72;5078397;28;20690;-67
2022/05/19 10:46:14;;;;;;;5.83;5.33;;;;;;;31.86;30.49;101356.09;5078887;28;20423;-68
2022/05/19 10:49:01;;;;;;;5.17;4.77;;;;;;;32.19;30.27;101351.97;5079082;28;20828;-68
2022/05/19 10:51:38;;;;;;;6.90;5.10;;;;;;;31.92;30.77;101355.66;5075227;28;20557;-68
2022/05/19 10:54:27;;;;;;;5.50;4.87;;;;;;;32.20;31.45;101340.22;5074864;28;20812;-69
2022/05/19 10:57:10;;;;;;;6.27;5.00;;;;;;;33.70;28.94;101328.94;5074918;28;20426;-68
2022/05/19 10:59:52;;;;;;;5.20;4.80;;;;;;;33.12;28.69;101323.53;5075564;28;20434;-69
2022/05/19 11:02:35;;;;;;;5.70;5.20;;;;;;;33.02;29.61;101328.78;5068534;28;20439;-69
2022/05/19 11:05:16;;;;;;;5.73;5.23;;;;;;;32.54;30.23;101326.94;5061100;28;20468;-70
2022/05/19 11:08:03;;;;;;;4.90;4.60;;;;;;;33.51;28.02;101316.03;5068788;28;20526;-68
2022/05/19 11:10:50;;;;;;;5.47;5.07;;;;;;;33.33;28.42;101318.34;5074658;28;20460;-67
2022/05/19 11:13:42;;;;;;;5.00;4.60;;;;;;;32.85;29.12;101317.41;5077225;28;20454;-69
2022/05/19 11:16:42;;;;;;;5.33;4.20;;;;;;;33.25;28.50;101297.31;5077234;28;20439;-67
2022/05/19 11:19:17;;;;;;;5.93;5.43;;;;;;;34.24;27.62;101298.44;5072123;28;20447;-68
2022/05/19 11:22:13;;;;;;;5.33;4.83;;;;;;;33.72;27.67;101294.53;5068734;28;20442;-67
2022/05/19 11:27:40;;;;;;;5.43;4.67;;;;;;;33.86;27.57;101293.47;5069786;28;20492;-68
2022/05/19 11:30:14;;;;;;;5.77;4.87;;;;;;;33.61;27.44;101292.69;5069589;28;20444;-67
2022/05/19 11:32:40;;;;;;;5.37;4.97;;;;;;;34.16;26.56;101290.09;5061547;28;20524;-67
2022/05/19 11:35:12;;;;;;;5.40;4.90;;;;;;;32.88;28.63;101284.78;5074514;28;20697;-68
2022/05/19 11:37:46;;;;;;;6.50;5.70;;;;;;;32.47;29.19;101285.19;5064063;28;20173;-69
2022/05/19 11:40:25;;;;;;;5.77;5.13;;;;;;;32.70;29.12;101269.94;5073036;28;20697;-69
2022/05/19 11:42:57;;;;;;;5.70;5.20;;;;;;;32.74;28.78;101266.06;5058752;28;20878;-68
2022/05/19 11:45:32;;;;;;;5.50;5.00;;;;;;;32.85;28.79;101266.09;5074306;28;20567;-69
2022/05/19 11:56:44;;;;;;;5.90;4.90;;;;;;;33.21;28.80;101250.72;5078233;28;20415;-68